createdAt,value
2023-03-19T00:04:37.189Z,8.13
2023-03-19T00:09:40.778Z,8.12
2023-03-19T00:14:44.347Z,8.07
2023-03-19T00:19:48.935Z,8.04
2023-03-19T00:24:52.420Z,8.15
2023-03-19T00:29:56.902Z,8.18
2023-03-19T00:35:02.064Z,8.22
2023-03-19T00:40:06.616Z,8.20
2023-03-19T00:45:11.626Z,8.14
2023-03-19T00:50:16.250Z,8.18
2023-03-19T00:55:19.652Z,8.22
2023-03-19T01:00:23.595Z,8.15
2023-03-19T01:05:28.321Z,8.22
2023-03-19T01:10:34.150Z,8.21
2023-03-19T01:15:39.279Z,8.24
2023-03-19T01:20:44.463Z,8.32
2023-03-19T01:25:48.103Z,8.37
2023-03-19T01:30:51.857Z,7.99
2023-03-19T01:36:19.666Z,8.14
2023-03-19T01:41:52.028Z,8.26
2023-03-19T01:47:18.333Z,8.12
2023-03-19T01:52:41.564Z,7.76
2023-03-19T01:57:59.022Z,7.98
2023-03-19T02:03:31.438Z,7.98
2023-03-19T02:08:50.742Z,7.87
2023-03-19T02:13:54.316Z,7.79
2023-03-19T02:18:58.049Z,7.50
2023-03-19T02:24:07.947Z,7.47
2023-03-19T02:29:23.223Z,6.83
2023-03-19T02:34:39.234Z,7.04
2023-03-19T02:39:51.936Z,7.16
2023-03-19T02:44:56.590Z,6.84
2023-03-19T02:49:59.835Z,6.76
2023-03-19T02:55:04.113Z,6.31
2023-03-19T03:00:10.864Z,6.50
2023-03-19T03:05:14.669Z,6.50
2023-03-19T03:10:18.854Z,6.57
2023-03-19T03:15:23.952Z,6.36
2023-03-19T03:20:27.580Z,6.38
2023-03-19T03:25:30.931Z,6.40
2023-03-19T03:30:35.887Z,6.50
2023-03-19T03:35:39.245Z,6.53
2023-03-19T03:40:42.831Z,6.70
2023-03-19T03:45:47.723Z,6.66
2023-03-19T03:50:52.797Z,6.54
2023-03-19T03:56:00.545Z,6.81
2023-03-19T04:01:09.125Z,6.81
2023-03-19T04:06:17.012Z,6.93
2023-03-19T04:11:21.745Z,7.05
2023-03-19T04:16:28.707Z,7.08
2023-03-19T04:21:32.231Z,7.06
2023-03-19T04:26:37.016Z,7.07
2023-03-19T04:31:41.606Z,7.04
2023-03-19T04:36:45.177Z,7.19
2023-03-19T04:41:49.244Z,7.07
2023-03-19T04:47:23.906Z,6.96
2023-03-19T04:52:32.690Z,7.08
2023-03-19T04:57:37.028Z,7.33
2023-03-19T05:02:42.807Z,7.17
2023-03-19T05:07:47.481Z,7.27
2023-03-19T05:12:51.536Z,7.28
2023-03-19T05:17:56.830Z,7.16
2023-03-19T05:23:07.537Z,7.18
2023-03-19T05:28:22.118Z,7.03
2023-03-19T05:33:26.923Z,7.08
2023-03-19T05:38:30.839Z,7.24
2023-03-19T05:43:40.874Z,7.04
2023-03-19T05:48:51.657Z,6.95
2023-03-19T05:53:55.191Z,7.17
2023-03-19T05:59:24.959Z,7.20
2023-03-19T06:04:42.649Z,7.22
2023-03-19T06:09:46.706Z,7.33
2023-03-19T06:14:50.707Z,7.55
2023-03-19T06:20:19.076Z,7.61
2023-03-19T06:25:23.604Z,7.69
2023-03-19T06:30:28.530Z,7.82
2023-03-19T06:35:37.096Z,7.69
2023-03-19T06:40:40.550Z,8.12
2023-03-19T06:45:44.415Z,8.16
2023-03-19T06:50:49.361Z,8.35
2023-03-19T06:55:52.632Z,8.69
2023-03-19T07:00:55.912Z,8.87
2023-03-19T07:06:00.613Z,8.84
2023-03-19T07:11:05.420Z,9.16
2023-03-19T07:16:09.448Z,9.27
2023-03-19T07:21:14.307Z,9.52
2023-03-19T07:26:17.970Z,9.79
2023-03-19T07:31:21.307Z,9.74
2023-03-19T07:36:26.462Z,10.16
2023-03-19T07:41:29.944Z,10.39
2023-03-19T07:46:33.169Z,10.52
2023-03-19T07:51:37.953Z,10.44
2023-03-19T07:56:41.235Z,10.87
2023-03-19T08:01:44.521Z,11.03
2023-03-19T08:06:49.188Z,11.25
2023-03-19T08:11:52.487Z,11.43
2023-03-19T08:16:56.375Z,11.60
2023-03-19T08:22:02.001Z,11.81
2023-03-19T08:27:06.603Z,12.05
2023-03-19T08:32:10.831Z,12.22
2023-03-19T08:37:16.042Z,12.35
2023-03-19T08:42:19.373Z,12.27
2023-03-19T08:47:24.772Z,12.25
2023-03-19T08:52:29.657Z,12.12
2023-03-19T08:57:33.896Z,12.06
2023-03-19T09:02:37.930Z,11.98
2023-03-19T09:07:43.059Z,12.10
2023-03-19T09:12:48.617Z,11.69
2023-03-19T09:17:52.144Z,11.85
2023-03-19T09:22:57.146Z,11.42
2023-03-19T09:28:00.568Z,11.07
2023-03-19T09:33:05.836Z,11.17
2023-03-19T09:38:10.824Z,11.12
2023-03-19T09:43:37.606Z,11.38
2023-03-19T09:48:49.356Z,11.44
2023-03-19T09:53:58.382Z,11.52
2023-03-19T09:59:03.430Z,11.60
2023-03-19T10:04:40.567Z,11.85
2023-03-19T10:10:02.440Z,11.73
2023-03-19T10:15:18.250Z,11.83
2023-03-19T10:20:30.448Z,11.66
2023-03-19T10:25:41.417Z,11.37
2023-03-19T10:30:51.838Z,11.40
2023-03-19T10:36:00.552Z,11.55
2023-03-19T10:41:20.170Z,11.87
2023-03-19T10:46:23.850Z,11.95
2023-03-19T10:51:28.586Z,12.29
2023-03-19T10:56:36.244Z,12.31
2023-03-19T11:01:41.951Z,12.73
2023-03-19T11:06:49.953Z,12.54
2023-03-19T11:11:59.170Z,13.32
2023-03-19T11:17:08.060Z,13.47
2023-03-19T11:22:18.950Z,13.38
2023-03-19T11:27:35.024Z,13.70
2023-03-19T11:33:04.893Z,13.65
2023-03-19T11:38:15.654Z,13.72
2023-03-19T11:43:40.222Z,13.44
2023-03-19T11:49:03.052Z,13.73
2023-03-19T11:54:12.389Z,13.94
2023-03-19T11:59:51.684Z,14.16
2023-03-19T12:05:11.611Z,14.67
2023-03-19T12:10:30.224Z,14.03
2023-03-19T12:15:41.167Z,14.25
2023-03-19T12:20:58.526Z,14.32
2023-03-19T12:26:08.868Z,14.89
2023-03-19T12:31:34.716Z,14.38
2023-03-19T12:36:47.209Z,14.63
2023-03-19T12:41:52.525Z,14.44
2023-03-19T12:47:03.789Z,14.23
2023-03-19T12:52:14.894Z,14.19
2023-03-19T12:57:25.331Z,14.47
2023-03-19T13:02:35.196Z,14.58
2023-03-19T13:07:50.408Z,14.44
2023-03-19T13:12:56.307Z,14.56
2023-03-19T13:18:15.662Z,14.74
2023-03-19T13:23:24.220Z,14.71
2023-03-19T13:28:30.711Z,14.80
2023-03-19T13:33:38.722Z,14.95
2023-03-19T13:38:46.327Z,14.63
2023-03-19T13:43:58.424Z,14.62
2023-03-19T13:49:26.746Z,14.38
2023-03-19T13:54:36.097Z,14.61
2023-03-19T13:59:41.247Z,14.60
2023-03-19T14:04:52.690Z,14.94
2023-03-19T14:10:08.033Z,14.99
2023-03-19T14:15:18.560Z,14.90
2023-03-19T14:20:37.488Z,15.19
2023-03-19T14:26:12.080Z,15.26
2023-03-19T14:31:22.765Z,14.99
2023-03-19T14:36:28.933Z,15.03
2023-03-19T14:41:36.275Z,15.12
2023-03-19T14:46:55.012Z,14.94
2023-03-19T14:52:15.723Z,15.00
2023-03-19T14:57:21.160Z,14.96
2023-03-19T15:02:37.446Z,14.67
2023-03-19T15:07:46.435Z,14.69
2023-03-19T15:13:09.787Z,14.72
2023-03-19T15:18:16.316Z,14.52
2023-03-19T15:23:27.296Z,14.21
2023-03-19T15:28:35.496Z,14.27
2023-03-19T15:33:44.865Z,14.04
2023-03-19T15:39:00.298Z,13.95
2023-03-19T15:44:10.066Z,13.84
2023-03-19T15:49:17.643Z,13.80
2023-03-19T15:54:24.076Z,13.78
2023-03-19T15:59:32.267Z,13.60
2023-03-19T16:04:55.879Z,13.61
2023-03-19T16:10:01.269Z,13.48
2023-03-19T16:15:23.186Z,13.54
2023-03-19T16:20:32.046Z,13.26
2023-03-19T16:25:37.033Z,13.27
2023-03-19T16:30:48.228Z,13.15
2023-03-19T16:35:53.837Z,13.05
2023-03-19T16:41:19.888Z,12.92
2023-03-19T16:46:29.903Z,12.85
2023-03-19T16:51:34.112Z,12.71
2023-03-19T16:56:39.132Z,12.43
2023-03-19T17:01:42.575Z,11.92
2023-03-19T17:06:46.032Z,11.79
2023-03-19T17:11:53.476Z,11.70
2023-03-19T17:16:57.083Z,11.25
2023-03-19T17:22:00.662Z,11.31
2023-03-19T17:27:05.892Z,10.82
2023-03-19T17:32:17.896Z,10.98
2023-03-19T17:37:21.419Z,10.81
2023-03-19T17:42:26.480Z,10.86
2023-03-19T17:47:29.765Z,10.67
2023-03-19T17:52:35.435Z,10.03
2023-03-19T17:57:40.402Z,9.92
2023-03-19T18:02:45.347Z,10.17
2023-03-19T18:07:50.759Z,10.17
2023-03-19T18:12:55.856Z,9.80
2023-03-19T18:18:01.901Z,9.95
2023-03-19T18:23:05.694Z,10.09
2023-03-19T18:28:10.691Z,10.04
2023-03-19T18:33:18.018Z,10.04
2023-03-19T18:38:23.670Z,10.20
2023-03-19T18:43:29.075Z,9.71
2023-03-19T18:48:33.161Z,9.93
2023-03-19T18:53:36.442Z,9.92
2023-03-19T18:58:41.842Z,9.57
2023-03-19T19:03:46.859Z,9.65
2023-03-19T19:08:50.587Z,9.79
2023-03-19T19:13:58.385Z,9.60
2023-03-19T19:19:02.279Z,9.43
2023-03-19T19:24:06.897Z,9.56
2023-03-19T19:29:20.415Z,9.47
2023-03-19T19:34:24.446Z,9.47
2023-03-19T19:39:28.160Z,9.46
2023-03-19T19:44:32.967Z,9.47
2023-03-19T19:49:37.137Z,9.37
2023-03-19T19:54:40.789Z,9.37
2023-03-19T19:59:45.853Z,9.18
2023-03-19T20:04:49.197Z,9.45
2023-03-19T20:09:52.928Z,9.06
2023-03-19T20:14:59.108Z,9.39
2023-03-19T20:20:02.205Z,9.52
2023-03-19T20:25:07.784Z,9.19
2023-03-19T20:30:23.808Z,9.38
2023-03-19T20:35:29.948Z,9.32
2023-03-19T20:40:36.080Z,9.28
2023-03-19T20:45:41.757Z,9.19
2023-03-19T20:50:47.876Z,8.94
2023-03-19T20:55:52.289Z,8.76
2023-03-19T21:00:57.913Z,8.28
2023-03-19T21:06:03.165Z,8.35
2023-03-19T21:11:11.760Z,8.50
2023-03-19T21:16:19.877Z,8.41
2023-03-19T21:21:31.545Z,8.42
2023-03-19T21:26:38.595Z,8.27
2023-03-19T21:31:43.974Z,8.33
2023-03-19T21:36:47.707Z,8.23
2023-03-19T21:41:51.127Z,8.57
2023-03-19T21:46:57.138Z,8.69
2023-03-19T21:52:02.089Z,8.70
2023-03-19T21:57:05.418Z,8.73
2023-03-19T22:02:37.822Z,8.63
2023-03-19T22:07:41.577Z,8.69
2023-03-19T22:12:45.787Z,8.59
2023-03-19T22:17:51.383Z,8.69
2023-03-19T22:22:55.572Z,8.59
2023-03-19T22:27:59.467Z,8.58
2023-03-19T22:33:12.007Z,8.61
2023-03-19T22:38:15.514Z,8.48
2023-03-19T22:43:23.160Z,8.50
2023-03-19T22:48:28.650Z,8.72
2023-03-19T22:53:33.601Z,8.29
2023-03-19T22:58:36.874Z,8.48
2023-03-19T23:03:42.008Z,8.65
2023-03-19T23:08:45.500Z,8.38
2023-03-19T23:13:48.583Z,8.63
2023-03-19T23:23:56.905Z,8.27
2023-03-19T23:29:04.641Z,8.19
2023-03-19T23:34:11.422Z,8.06
2023-03-19T23:39:15.345Z,8.14
2023-03-19T23:44:20.458Z,8.10
2023-03-19T23:49:29.798Z,8.15
2023-03-19T23:54:34.726Z,7.84
2023-03-19T23:59:41.880Z,7.94
